createdAt,value
2022-07-27T00:01:13.237Z,99331.72
2022-07-27T00:03:41.734Z,99329.03
2022-07-27T00:06:09.499Z,99326.50
2022-07-27T00:08:37.128Z,99338.28
2022-07-27T00:11:05.098Z,99338.69
2022-07-27T00:13:32.703Z,99341.22
2022-07-27T00:16:00.372Z,99337.00
2022-07-27T00:18:28.223Z,99343.38
2022-07-27T00:20:55.952Z,99342.09
2022-07-27T00:23:23.421Z,99339.59
2022-07-27T00:25:51.359Z,99345.50
2022-07-27T00:28:18.927Z,99348.69
2022-07-27T00:30:46.792Z,99343.38
2022-07-27T00:33:17.264Z,99340.41
2022-07-27T00:35:45.999Z,99343.19
2022-07-27T00:38:14.212Z,99342.34
2022-07-27T00:40:41.845Z,99340.22
2022-07-27T00:43:09.391Z,99339.06
2022-07-27T00:45:37.172Z,99339.28
2022-07-27T00:48:05.216Z,99347.44
2022-07-27T00:50:32.913Z,99341.59
2022-07-27T00:53:00.733Z,99342.97
2022-07-27T00:55:28.486Z,99337.50
2022-07-27T00:57:58.796Z,99339.44
2022-07-27T01:00:28.356Z,99335.91
2022-07-27T01:02:57.318Z,99338.66
2022-07-27T01:05:36.148Z,99327.75
2022-07-27T01:08:06.700Z,99345.16
2022-07-27T01:10:34.761Z,99346.66
2022-07-27T01:13:02.739Z,99338.44
2022-07-27T01:15:31.074Z,99341.59
2022-07-27T01:18:03.042Z,99347.06
2022-07-27T01:20:31.001Z,99344.06
2022-07-27T01:22:58.471Z,99344.28
2022-07-27T01:25:26.284Z,99349.34
2022-07-27T01:27:54.137Z,99352.31
2022-07-27T01:30:27.725Z,99349.38
2022-07-27T01:33:03.204Z,99335.31
2022-07-27T01:35:31.188Z,99341.38
2022-07-27T01:37:59.080Z,99335.53
2022-07-27T01:40:27.034Z,99333.62
2022-07-27T01:42:54.731Z,99341.59
2022-07-27T01:45:22.637Z,99351.00
2022-07-27T01:47:50.089Z,99349.75
2022-07-27T01:50:17.551Z,99350.00
2022-07-27T01:52:45.326Z,99349.75
2022-07-27T01:55:12.936Z,99336.97
2022-07-27T01:57:40.686Z,99329.22
2022-07-27T02:00:13.772Z,99338.69
2022-07-27T02:02:42.038Z,99335.94
2022-07-27T02:05:12.646Z,99340.06
2022-07-27T02:07:41.030Z,99334.03
2022-07-27T02:10:10.037Z,99329.81
2022-07-27T02:12:38.097Z,99330.84
2022-07-27T02:15:19.661Z,99328.09
2022-07-27T02:17:49.246Z,99333.00
2022-07-27T02:20:19.771Z,99324.38
2022-07-27T02:22:47.612Z,99329.84
2022-07-27T02:25:17.326Z,99329.66
2022-07-27T02:27:45.285Z,99338.00
2022-07-27T02:30:13.654Z,99340.53
2022-07-27T02:32:44.131Z,99325.16
2022-07-27T02:35:18.703Z,99332.09
2022-07-27T02:37:48.640Z,99339.47
2022-07-27T02:40:17.600Z,99339.47
2022-07-27T02:42:46.311Z,99342.75
2022-07-27T02:45:17.183Z,99341.56
2022-07-27T02:47:45.043Z,99332.31
2022-07-27T02:50:12.846Z,99342.62
2022-07-27T02:52:40.629Z,99336.31
2022-07-27T02:55:09.065Z,99332.72
2022-07-27T02:57:38.045Z,99331.22
2022-07-27T03:00:13.620Z,99338.56
2022-07-27T03:02:41.339Z,99337.56
2022-07-27T03:05:10.743Z,99343.66
2022-07-27T03:07:38.308Z,99344.03
2022-07-27T03:10:06.583Z,99336.41
2022-07-27T03:12:34.477Z,99338.53
2022-07-27T03:15:01.942Z,99334.34
2022-07-27T03:17:29.514Z,99344.06
2022-07-27T03:19:57.307Z,99342.53
2022-07-27T03:22:24.730Z,99332.28
2022-07-27T03:24:52.199Z,99327.84
2022-07-27T03:27:20.034Z,99329.34
2022-07-27T03:29:47.536Z,99333.13
2022-07-27T03:32:15.030Z,99345.09
2022-07-27T03:34:42.800Z,99342.34
2022-07-27T03:37:10.385Z,99341.53
2022-07-27T03:39:37.961Z,99334.19
2022-07-27T03:42:05.957Z,99335.91
2022-07-27T03:44:33.519Z,99344.94
2022-07-27T03:47:01.097Z,99344.97
2022-07-27T03:49:28.922Z,99350.03
2022-07-27T03:51:56.452Z,99343.31
2022-07-27T03:54:23.952Z,99347.09
2022-07-27T03:56:51.761Z,99348.94
2022-07-27T03:59:19.258Z,99340.75
2022-07-27T04:01:47.204Z,99344.53
2022-07-27T04:04:15.226Z,99350.22
2022-07-27T04:06:42.939Z,99349.97
2022-07-27T04:09:10.455Z,99342.22
2022-07-27T04:11:43.605Z,99351.03
2022-07-27T04:14:12.954Z,99353.56
2022-07-27T04:16:41.452Z,99354.16
2022-07-27T04:19:09.473Z,99342.38
2022-07-27T04:21:38.003Z,99350.19
2022-07-27T04:24:07.108Z,99355.88
2022-07-27T04:26:34.610Z,99362.19
2022-07-27T04:29:02.125Z,99364.91
2022-07-27T04:31:29.861Z,99349.53
2022-07-27T04:33:57.591Z,99362.19
2022-07-27T04:36:25.019Z,99362.16
2022-07-27T04:38:52.765Z,99361.31
2022-07-27T04:41:20.235Z,99355.84
2022-07-27T04:43:47.710Z,99353.03
2022-07-27T04:46:15.834Z,99349.81
2022-07-27T04:48:48.818Z,99359.03
2022-07-27T04:51:18.188Z,99350.69
2022-07-27T04:53:53.539Z,99348.69
2022-07-27T04:56:27.151Z,99355.44
2022-07-27T04:58:57.741Z,99359.28
2022-07-27T05:01:26.669Z,99366.09
2022-07-27T05:03:56.252Z,99365.03
2022-07-27T05:06:23.784Z,99366.78
2022-07-27T05:08:51.339Z,99372.44
2022-07-27T05:11:19.141Z,99371.94
2022-07-27T05:13:46.622Z,99372.28
2022-07-27T05:16:14.215Z,99378.47
2022-07-27T05:18:42.277Z,99374.84
2022-07-27T05:21:09.811Z,99370.47
2022-07-27T05:23:37.345Z,99380.28
2022-07-27T05:26:05.191Z,99383.66
2022-07-27T05:28:32.676Z,99381.59
2022-07-27T05:31:00.239Z,99378.13
2022-07-27T05:33:28.243Z,99385.00
2022-07-27T05:35:56.494Z,99373.16
2022-07-27T05:38:24.040Z,99391.19
2022-07-27T05:40:53.359Z,99381.25
2022-07-27T05:43:20.970Z,99383.41
2022-07-27T05:45:48.608Z,99381.28
2022-07-27T05:48:16.454Z,99381.19
2022-07-27T05:50:44.045Z,99388.91
2022-07-27T05:53:11.567Z,99383.31
2022-07-27T05:55:39.396Z,99387.31
2022-07-27T05:58:26.063Z,99398.94
2022-07-27T06:00:54.355Z,99399.03
2022-07-27T06:03:22.905Z,99394.62
2022-07-27T06:05:50.472Z,99408.56
2022-07-27T06:08:18.025Z,99403.59
2022-07-27T06:10:45.874Z,99414.13
2022-07-27T06:13:13.972Z,99413.25
2022-07-27T06:15:41.505Z,99417.66
2022-07-27T06:18:16.801Z,99417.62
2022-07-27T06:20:45.755Z,99412.84
2022-07-27T06:23:13.672Z,99419.59
2022-07-27T06:25:41.140Z,99416.94
2022-07-27T06:28:09.354Z,99417.44
2022-07-27T06:30:37.110Z,99413.25
2022-07-27T06:33:06.172Z,99412.31
2022-07-27T06:35:34.512Z,99414.66
2022-07-27T06:38:05.848Z,99414.16
2022-07-27T06:40:33.458Z,99420.75
2022-07-27T06:43:01.054Z,99415.63
2022-07-27T06:45:28.997Z,99417.00
2022-07-27T06:47:56.499Z,99410.81
2022-07-27T06:50:24.232Z,99406.06
2022-07-27T06:52:52.163Z,99403.53
2022-07-27T06:55:19.654Z,99410.84
2022-07-27T06:57:47.391Z,99402.84
2022-07-27T07:00:15.469Z,99400.34
2022-07-27T07:02:56.400Z,99406.69
2022-07-27T07:05:27.347Z,99405.47
2022-07-27T07:07:55.518Z,99405.47
2022-07-27T07:10:24.743Z,99409.66
2022-07-27T07:12:56.059Z,99406.84
2022-07-27T07:15:25.152Z,99407.06
2022-07-27T07:17:54.344Z,99398.81
2022-07-27T07:20:22.224Z,99404.88
2022-07-27T07:22:50.386Z,99401.22
2022-07-27T07:25:18.159Z,99399.37
2022-07-27T07:27:45.656Z,99393.03
2022-07-27T07:30:13.330Z,99383.97
2022-07-27T07:32:41.130Z,99390.91
2022-07-27T07:35:09.297Z,99400.16
2022-07-27T07:37:36.789Z,99389.34
2022-07-27T07:40:40.041Z,99381.34
2022-07-27T07:42:56.498Z,99387.31
2022-07-27T07:45:24.900Z,99373.06
2022-07-27T07:47:52.952Z,99383.50
2022-07-27T07:50:21.422Z,99379.31
2022-07-27T07:52:50.893Z,99378.78
2022-07-27T07:55:23.329Z,99368.47
2022-07-27T07:57:51.193Z,99375.91
2022-07-27T08:00:20.929Z,99377.56
2022-07-27T08:02:49.747Z,99376.53
2022-07-27T08:05:17.628Z,99379.06
2022-07-27T08:07:45.946Z,99373.28
2022-07-27T08:10:15.155Z,99378.31
2022-07-27T08:12:45.043Z,99368.87
2022-07-27T08:15:13.765Z,99370.25
2022-07-27T08:17:42.625Z,99370.81
2022-07-27T08:20:11.233Z,99368.72
2022-07-27T08:22:39.026Z,99368.59
2022-07-27T08:25:08.323Z,99367.09
2022-07-27T08:27:40.681Z,99366.44
2022-07-27T08:30:10.648Z,99370.53
2022-07-27T08:32:55.168Z,99364.53
2022-07-27T08:35:23.123Z,99359.47
2022-07-27T08:37:52.692Z,99361.44
2022-07-27T08:40:41.853Z,99355.47
2022-07-27T08:43:13.253Z,99360.44
2022-07-27T08:45:41.869Z,99353.97
2022-07-27T08:48:14.004Z,99359.16
2022-07-27T08:50:42.726Z,99359.97
2022-07-27T08:53:13.172Z,99353.81
2022-07-27T08:55:42.545Z,99358.31
2022-07-27T08:58:12.306Z,99352.31
2022-07-27T09:00:45.400Z,99348.88
2022-07-27T09:03:19.026Z,99351.47
2022-07-27T09:05:53.267Z,99355.31
2022-07-27T09:08:28.843Z,99349.03
2022-07-27T09:10:59.580Z,99345.41
2022-07-27T09:13:34.784Z,99339.97
2022-07-27T09:16:23.517Z,99352.78
2022-07-27T09:19:00.754Z,99350.28
2022-07-27T09:21:28.608Z,99356.47
2022-07-27T09:24:29.781Z,99350.47
2022-07-27T09:27:04.857Z,99344.22
2022-07-27T09:29:37.136Z,99351.13
2022-07-27T09:32:15.849Z,99344.22
2022-07-27T09:34:44.142Z,99341.84
2022-07-27T09:37:12.490Z,99348.88
2022-07-27T09:39:40.151Z,99337.78
2022-07-27T09:42:47.860Z,99338.94
2022-07-27T09:45:04.185Z,99342.72
2022-07-27T09:47:32.052Z,99336.81
2022-07-27T09:50:20.829Z,99339.44
2022-07-27T09:52:48.632Z,99335.00
2022-07-27T09:55:19.981Z,99334.78
2022-07-27T09:57:56.416Z,99352.59
2022-07-27T10:00:25.796Z,99344.09
2022-07-27T10:02:54.136Z,99339.44
2022-07-27T10:05:22.981Z,99338.75
2022-07-27T10:07:52.562Z,99343.47
2022-07-27T10:10:20.922Z,99335.97
2022-07-27T10:12:54.041Z,99337.97
2022-07-27T10:15:24.079Z,99334.81
2022-07-27T10:17:59.165Z,99334.72
2022-07-27T10:20:27.389Z,99337.50
2022-07-27T10:22:58.661Z,99325.09
2022-07-27T10:25:32.518Z,99332.53
2022-07-27T10:28:17.890Z,99326.97
2022-07-27T10:30:48.316Z,99317.66
2022-07-27T10:33:42.806Z,99326.28
2022-07-27T10:36:19.665Z,99329.56
2022-07-27T10:38:49.766Z,99314.56
2022-07-27T10:41:40.898Z,99310.38
2022-07-27T10:44:14.970Z,99321.00
2022-07-27T10:46:46.708Z,99307.91
2022-07-27T10:49:25.000Z,99305.97
2022-07-27T10:51:53.299Z,99298.25
2022-07-27T10:54:52.691Z,99304.09
2022-07-27T10:57:26.945Z,99304.91
2022-07-27T11:00:14.731Z,99307.66
2022-07-27T11:02:42.720Z,99313.50
2022-07-27T11:08:35.501Z,99303.25
2022-07-27T11:10:50.489Z,99291.03
2022-07-27T11:13:19.199Z,99298.28
2022-07-27T11:16:22.841Z,99297.41
2022-07-27T11:18:54.966Z,99289.94
2022-07-27T11:21:28.805Z,99290.47
2022-07-27T11:24:05.959Z,99276.53
2022-07-27T11:26:39.511Z,99273.44
2022-07-27T11:29:09.371Z,99272.69
2022-07-27T11:31:54.694Z,99272.97
2022-07-27T11:34:35.809Z,99285.22
2022-07-27T11:37:13.806Z,99281.88
2022-07-27T11:39:59.747Z,99281.84
2022-07-27T11:42:38.424Z,99284.91
2022-07-27T11:45:07.546Z,99279.09
2022-07-27T11:47:36.059Z,99276.31
2022-07-27T11:50:08.284Z,99278.56
2022-07-27T11:52:36.131Z,99268.84
2022-07-27T11:55:03.942Z,99276.84
2022-07-27T11:57:33.032Z,99275.63
2022-07-27T12:00:02.209Z,99278.09
2022-07-27T12:02:51.325Z,99277.47
2022-07-27T12:05:19.338Z,99275.84
2022-07-27T12:07:47.411Z,99274.78
2022-07-27T12:10:14.900Z,99265.44
2022-07-27T12:12:49.232Z,99272.62
2022-07-27T12:18:06.732Z,99256.59
2022-07-27T12:20:35.553Z,99241.06
2022-07-27T12:23:07.825Z,99250.41
2022-07-27T12:25:36.375Z,99249.62
2022-07-27T12:28:13.521Z,99239.13
2022-07-27T12:30:49.432Z,99241.63
2022-07-27T12:33:35.623Z,99235.78
2022-07-27T12:36:05.772Z,99240.22
2022-07-27T12:38:51.501Z,99240.78
2022-07-27T12:41:26.647Z,99231.94
2022-07-27T12:44:09.285Z,99241.06
2022-07-27T12:46:56.398Z,99231.06
2022-07-27T12:49:34.371Z,99237.06
2022-07-27T12:52:07.017Z,99227.75
2022-07-27T12:54:34.755Z,99226.09
2022-07-27T12:57:02.767Z,99219.81
2022-07-27T12:59:30.336Z,99221.00
2022-07-27T13:01:57.965Z,99219.28
2022-07-27T13:04:26.137Z,99222.22
2022-07-27T13:06:53.773Z,99217.34
2022-07-27T13:09:21.302Z,99211.66
2022-07-27T13:11:49.118Z,99216.03
2022-07-27T13:14:16.596Z,99201.13
2022-07-27T13:16:44.247Z,99216.66
2022-07-27T13:19:15.349Z,99216.03
2022-07-27T13:21:43.359Z,99217.38
2022-07-27T13:24:11.493Z,99216.13
2022-07-27T13:26:40.821Z,99215.53
2022-07-27T13:29:08.332Z,99217.69
2022-07-27T13:31:37.116Z,99209.72
2022-07-27T13:34:05.026Z,99211.38
2022-07-27T13:36:32.494Z,99206.97
2022-07-27T13:38:59.994Z,99207.22
2022-07-27T13:41:27.880Z,99198.09
2022-07-27T13:43:55.366Z,99197.25
2022-07-27T13:46:22.912Z,99193.09
2022-07-27T13:48:50.800Z,99178.41
2022-07-27T13:51:18.345Z,99185.59
2022-07-27T13:53:46.842Z,99190.88
2022-07-27T13:56:14.665Z,99178.94
2022-07-27T13:58:42.671Z,99180.59
2022-07-27T14:01:11.368Z,99180.63
2022-07-27T14:03:39.612Z,99169.81
2022-07-27T14:06:07.206Z,99175.03
2022-07-27T14:08:36.615Z,99166.47
2022-07-27T14:11:05.202Z,99168.41
2022-07-27T14:13:32.847Z,99167.53
2022-07-27T14:16:01.680Z,99168.88
2022-07-27T14:18:30.935Z,99164.44
2022-07-27T14:21:00.736Z,99160.78
2022-07-27T14:23:28.875Z,99164.34
2022-07-27T14:25:58.488Z,99159.97
2022-07-27T14:28:27.754Z,99158.66
2022-07-27T14:30:56.361Z,99156.13
2022-07-27T14:33:25.852Z,99151.75
2022-07-27T14:36:00.051Z,99148.63
2022-07-27T14:38:30.884Z,99145.13
2022-07-27T14:41:00.828Z,99141.09
2022-07-27T14:43:29.823Z,99146.91
2022-07-27T14:45:57.612Z,99142.94
2022-07-27T14:48:37.118Z,99133.53
2022-07-27T14:51:12.961Z,99136.44
2022-07-27T14:53:40.515Z,99136.47
2022-07-27T14:56:07.991Z,99135.00
2022-07-27T14:58:35.819Z,99140.84
2022-07-27T15:01:03.618Z,99147.50
2022-07-27T15:03:31.255Z,99141.97
2022-07-27T15:05:59.038Z,99137.75
2022-07-27T15:08:26.603Z,99130.72
2022-07-27T15:10:54.245Z,99136.12
2022-07-27T15:13:22.019Z,99126.66
2022-07-27T15:15:50.845Z,99129.84
2022-07-27T15:18:21.030Z,99128.97
2022-07-27T15:20:48.865Z,99135.03
2022-07-27T15:23:16.787Z,99131.78
2022-07-27T15:25:44.542Z,99135.88
2022-07-27T15:28:12.863Z,99129.44
2022-07-27T15:30:41.027Z,99131.28
2022-07-27T15:33:08.679Z,99125.25
2022-07-27T15:35:36.468Z,99124.06
2022-07-27T15:38:04.015Z,99123.22
2022-07-27T15:40:37.830Z,99123.44
2022-07-27T15:43:06.951Z,99125.34
2022-07-27T15:45:38.712Z,99128.72
2022-07-27T15:48:08.563Z,99122.22
2022-07-27T15:50:37.499Z,99124.19
2022-07-27T15:53:06.081Z,99118.19
2022-07-27T15:55:34.438Z,99121.50
2022-07-27T15:58:01.945Z,99119.59
2022-07-27T16:00:29.672Z,99130.09
2022-07-27T16:02:57.562Z,99129.88
2022-07-27T16:05:25.539Z,99124.84
2022-07-27T16:07:53.049Z,99121.84
2022-07-27T16:10:20.872Z,99129.84
2022-07-27T16:12:48.778Z,99129.25
2022-07-27T16:15:16.304Z,99129.91
2022-07-27T16:17:45.617Z,99135.66
2022-07-27T16:20:13.467Z,99137.25
2022-07-27T16:22:41.063Z,99145.69
2022-07-27T16:25:08.951Z,99140.37
2022-07-27T16:27:36.449Z,99136.00
2022-07-27T16:30:04.487Z,99145.63
2022-07-27T16:32:32.385Z,99145.31
2022-07-27T16:34:59.909Z,99145.31
2022-07-27T16:37:27.473Z,99149.16
2022-07-27T16:39:55.278Z,99147.09
2022-07-27T16:42:22.824Z,99150.19
2022-07-27T16:44:50.382Z,99148.34
2022-07-27T16:47:18.169Z,99149.69
2022-07-27T16:49:45.717Z,99154.97
2022-07-27T16:52:13.555Z,99153.16
2022-07-27T16:54:41.321Z,99153.72
2022-07-27T16:57:10.626Z,99156.16
2022-07-27T16:59:41.714Z,99150.41
2022-07-27T17:02:09.654Z,99155.53
2022-07-27T17:04:37.927Z,99155.28
2022-07-27T17:07:06.212Z,99158.03
2022-07-27T17:09:41.317Z,99159.69
2022-07-27T17:12:09.146Z,99165.34
2022-07-27T17:14:36.664Z,99155.22
2022-07-27T17:17:04.545Z,99167.06
2022-07-27T17:19:32.095Z,99180.38
2022-07-27T17:21:59.746Z,99180.22
2022-07-27T17:24:27.589Z,99173.97
2022-07-27T17:26:55.158Z,99190.97
2022-07-27T17:29:23.737Z,99190.06
2022-07-27T17:31:51.829Z,99186.84
2022-07-27T17:34:19.510Z,99190.91
2022-07-27T17:36:47.220Z,99191.16
2022-07-27T17:39:15.261Z,99200.31
2022-07-27T17:41:43.626Z,99205.88
2022-07-27T17:44:11.471Z,99199.94
2022-07-27T17:46:39.365Z,99203.34
2022-07-27T17:49:07.039Z,99198.50
2022-07-27T17:51:37.116Z,99199.53
2022-07-27T17:54:05.202Z,99198.16
2022-07-27T17:56:32.714Z,99200.37
2022-07-27T17:59:14.388Z,99207.09
2022-07-27T18:01:48.697Z,99199.34
2022-07-27T18:04:16.683Z,99208.22
2022-07-27T18:06:44.318Z,99205.94
2022-07-27T18:09:12.174Z,99211.03
2022-07-27T18:11:40.493Z,99210.53
2022-07-27T18:14:08.181Z,99206.56
2022-07-27T18:16:40.362Z,99210.84
2022-07-27T18:19:08.940Z,99216.19
2022-07-27T18:21:36.570Z,99213.66
2022-07-27T18:24:04.371Z,99207.78
2022-07-27T18:26:32.170Z,99221.22
2022-07-27T18:28:59.792Z,99219.41
2022-07-27T18:31:27.648Z,99227.75
2022-07-27T18:33:56.079Z,99236.09
2022-07-27T18:36:23.703Z,99241.50
2022-07-27T18:38:51.628Z,99240.50
2022-07-27T18:41:19.479Z,99236.34
2022-07-27T18:43:56.342Z,99248.59
2022-07-27T18:46:24.243Z,99251.63
2022-07-27T18:48:51.866Z,99261.94
2022-07-27T18:51:19.449Z,99256.25
2022-07-27T18:53:48.871Z,99264.78
2022-07-27T18:56:16.489Z,99268.66
2022-07-27T18:58:44.048Z,99278.09
2022-07-27T19:01:11.932Z,99281.22
2022-07-27T19:03:40.631Z,99277.84
2022-07-27T19:06:11.341Z,99277.19
2022-07-27T19:08:45.795Z,99283.03
2022-07-27T19:11:13.397Z,99285.69
2022-07-27T19:13:41.233Z,99285.72
2022-07-27T19:16:09.630Z,99289.31
2022-07-27T19:18:37.192Z,99297.19
2022-07-27T19:21:04.720Z,99307.75
2022-07-27T19:23:32.740Z,99311.47
2022-07-27T19:26:00.658Z,99320.16
2022-07-27T19:28:28.343Z,99324.34
2022-07-27T19:30:56.176Z,99331.47
2022-07-27T19:33:23.777Z,99334.75
2022-07-27T19:35:52.592Z,99329.38
2022-07-27T19:38:20.464Z,99333.56
2022-07-27T19:40:48.357Z,99339.69
2022-07-27T19:43:15.973Z,99337.16
2022-07-27T19:45:43.884Z,99339.94
2022-07-27T19:48:12.007Z,99331.66
2022-07-27T19:50:39.925Z,99345.09
2022-07-27T19:53:08.091Z,99343.03
2022-07-27T19:55:36.148Z,99359.63
2022-07-27T19:58:04.167Z,99358.56
2022-07-27T20:00:32.380Z,99367.28
2022-07-27T20:03:00.482Z,99377.22
2022-07-27T20:05:28.196Z,99374.38
2022-07-27T20:07:55.735Z,99378.44
2022-07-27T20:10:25.354Z,99380.47
2022-07-27T20:12:53.136Z,99380.56
2022-07-27T20:15:22.317Z,99383.63
2022-07-27T20:17:50.743Z,99386.84
2022-07-27T20:20:18.390Z,99386.47
2022-07-27T20:22:46.112Z,99390.63
2022-07-27T20:25:14.962Z,99387.22
2022-07-27T20:27:42.865Z,99375.69
2022-07-27T20:30:11.762Z,99382.38
2022-07-27T20:32:39.603Z,99377.06
2022-07-27T20:35:07.397Z,99375.69
2022-07-27T20:37:35.175Z,99374.53
2022-07-27T20:40:05.335Z,99376.31
2022-07-27T20:42:33.106Z,99375.97
2022-07-27T20:45:00.694Z,99383.59
2022-07-27T20:47:34.318Z,99375.91
2022-07-27T20:50:02.340Z,99373.69
2022-07-27T20:52:30.204Z,99367.78
2022-07-27T20:54:57.876Z,99367.53
2022-07-27T20:57:25.404Z,99366.22
2022-07-27T20:59:53.280Z,99367.78
2022-07-27T21:02:20.951Z,99377.16
2022-07-27T21:04:48.598Z,99373.50
2022-07-27T21:07:16.365Z,99370.81
2022-07-27T21:09:43.875Z,99369.81
2022-07-27T21:12:11.419Z,99372.72
2022-07-27T21:14:39.238Z,99375.19
2022-07-27T21:17:06.865Z,99382.84
2022-07-27T21:19:34.616Z,99391.22
2022-07-27T21:22:02.438Z,99401.50
2022-07-27T21:24:29.985Z,99395.56
2022-07-27T21:27:00.954Z,99403.97
2022-07-27T21:29:32.420Z,99405.34
2022-07-27T21:31:59.930Z,99410.78
2022-07-27T21:34:27.582Z,99411.97
2022-07-27T21:36:55.547Z,99411.09
2022-07-27T21:39:24.104Z,99416.28
2022-07-27T21:41:51.711Z,99419.84
2022-07-27T21:44:19.457Z,99416.75
2022-07-27T21:46:48.459Z,99426.25
2022-07-27T21:49:16.065Z,99430.88
2022-07-27T21:51:43.870Z,99422.41
2022-07-27T21:54:11.710Z,99424.63
2022-07-27T21:56:41.086Z,99424.56
2022-07-27T21:59:10.253Z,99434.38
2022-07-27T22:01:37.898Z,99411.16
2022-07-27T22:04:06.305Z,99426.62
2022-07-27T22:06:34.023Z,99416.78
2022-07-27T22:09:01.594Z,99421.22
2022-07-27T22:11:29.339Z,99420.09
2022-07-27T22:13:56.825Z,99422.50
2022-07-27T22:16:24.484Z,99427.03
2022-07-27T22:18:52.334Z,99427.63
2022-07-27T22:21:19.822Z,99429.84
2022-07-27T22:23:49.255Z,99426.91
2022-07-27T22:26:17.467Z,99424.91
2022-07-27T22:28:45.007Z,99436.87
2022-07-27T22:31:21.150Z,99437.37
2022-07-27T22:33:51.082Z,99432.97
2022-07-27T22:36:18.996Z,99434.00
2022-07-27T22:38:46.537Z,99431.94
2022-07-27T22:41:14.381Z,99430.22
2022-07-27T22:43:41.886Z,99430.37
2022-07-27T22:46:10.125Z,99424.19
2022-07-27T22:48:38.412Z,99421.03
2022-07-27T22:51:05.913Z,99425.50
2022-07-27T22:53:33.893Z,99419.19
2022-07-27T22:56:01.635Z,99415.97
2022-07-27T22:58:29.151Z,99420.44
2022-07-27T23:00:59.694Z,99414.25
2022-07-27T23:03:27.831Z,99414.59
2022-07-27T23:05:55.304Z,99415.38
2022-07-27T23:08:22.825Z,99418.91
2022-07-27T23:10:50.628Z,99421.97
2022-07-27T23:13:19.365Z,99423.84
2022-07-27T23:15:47.538Z,99420.84
2022-07-27T23:18:16.818Z,99424.56
2022-07-27T23:20:45.122Z,99423.78
2022-07-27T23:23:16.794Z,99422.94
2022-07-27T23:25:46.032Z,99423.03
2022-07-27T23:28:15.220Z,99424.41
2022-07-27T23:30:42.912Z,99425.94
2022-07-27T23:33:10.775Z,99427.06
2022-07-27T23:35:38.394Z,99424.81
2022-07-27T23:38:05.976Z,99421.44
2022-07-27T23:40:33.727Z,99429.50
2022-07-27T23:43:01.307Z,99424.19
2022-07-27T23:45:28.908Z,99427.31
2022-07-27T23:47:56.658Z,99422.75
2022-07-27T23:50:24.210Z,99419.06
2022-07-27T23:52:51.803Z,99423.72
2022-07-27T23:55:19.552Z,99426.38
2022-07-27T23:57:47.335Z,99430.34
